createdAt,value
2022-12-25T04:06:51.452Z,507.00
2022-12-25T04:07:51.434Z,510.00
2022-12-25T04:08:51.384Z,507.00
2022-12-25T04:09:51.372Z,510.00
2022-12-25T04:10:51.321Z,513.00
2022-12-25T04:11:51.309Z,511.00
2022-12-25T04:12:51.276Z,510.00
2022-12-25T04:13:51.248Z,506.00
2022-12-25T04:14:51.234Z,507.00
2022-12-25T04:15:51.249Z,504.00
2022-12-25T04:16:51.243Z,508.00
2022-12-25T04:17:51.245Z,506.00
2022-12-25T04:18:51.125Z,504.00
2022-12-25T04:19:51.062Z,506.00
2022-12-25T04:20:51.026Z,508.00
2022-12-25T04:21:51.006Z,505.00
2022-12-25T04:22:50.964Z,505.00
2022-12-25T04:23:50.948Z,506.00
2022-12-25T04:24:50.905Z,505.00
2022-12-25T04:25:50.869Z,507.00
2022-12-25T04:26:50.853Z,505.00
2022-12-25T04:27:50.831Z,505.00
2022-12-25T04:28:50.793Z,505.00
2022-12-25T04:29:50.768Z,507.00
2022-12-25T04:30:50.748Z,506.00
2022-12-25T04:31:50.694Z,506.00
2022-12-25T04:32:50.656Z,507.00
2022-12-25T04:33:50.631Z,503.00
2022-12-25T04:34:50.618Z,503.00
2022-12-25T04:35:50.569Z,503.00
2022-12-25T04:36:50.545Z,504.00
2022-12-25T04:37:50.508Z,504.00
2022-12-25T04:38:50.488Z,504.00
2022-12-25T04:39:50.455Z,505.00
2022-12-25T04:40:50.425Z,503.00
2022-12-25T04:41:50.397Z,506.00
2022-12-25T04:42:50.360Z,502.00
2022-12-25T04:43:50.337Z,504.00
2022-12-25T04:44:50.326Z,506.00
2022-12-25T04:45:50.272Z,502.00
2022-12-25T04:46:50.354Z,512.00
2022-12-25T04:47:50.223Z,505.00
2022-12-25T04:48:50.189Z,501.00
2022-12-25T04:49:50.143Z,503.00
2022-12-25T04:50:50.115Z,501.00
2022-12-25T08:22:44.031Z,506.00
2022-12-25T08:23:44.006Z,512.00
2022-12-25T08:24:43.968Z,509.00
2022-12-25T08:25:43.944Z,508.00
2022-12-25T08:26:43.910Z,507.00
2022-12-25T08:27:43.887Z,514.00
2022-12-25T08:28:43.861Z,512.00
2022-12-25T08:29:43.840Z,509.00
2022-12-25T08:30:43.833Z,507.00
2022-12-25T08:31:46.459Z,506.00
2022-12-25T08:32:43.740Z,514.00
2022-12-25T08:33:43.705Z,510.00
2022-12-25T08:34:43.692Z,511.00
2022-12-25T08:35:43.643Z,511.00
2022-12-25T08:36:43.631Z,508.00
2022-12-25T08:37:43.602Z,513.00
2022-12-25T08:38:43.602Z,513.00
2022-12-25T08:39:43.527Z,513.00
2022-12-25T08:40:43.516Z,507.00
2022-12-25T08:41:43.484Z,511.00
2022-12-25T08:42:43.448Z,511.00
2022-12-25T08:43:43.473Z,511.00
2022-12-25T08:44:43.381Z,510.00
2022-12-25T08:45:43.420Z,510.00
2022-12-25T08:46:43.365Z,508.00
2022-12-25T08:47:43.325Z,505.00
2022-12-25T08:48:43.287Z,510.00
2022-12-25T08:49:43.255Z,511.00
2022-12-25T08:50:43.224Z,506.00
2022-12-25T08:51:43.198Z,508.00
2022-12-25T08:52:43.171Z,510.00
2022-12-25T08:53:43.168Z,512.00
2022-12-25T08:54:43.135Z,512.00
2022-12-25T08:55:43.106Z,509.00
2022-12-25T08:56:43.063Z,508.00
2022-12-25T08:57:43.035Z,510.00
2022-12-25T08:58:43.006Z,515.00
2022-12-25T08:59:42.970Z,513.00
2022-12-25T09:00:42.941Z,511.00
2022-12-25T09:01:43.031Z,512.00
2022-12-25T09:09:42.708Z,512.00
2022-12-25T09:22:42.326Z,513.00
2022-12-25T09:29:42.093Z,518.00
2022-12-25T09:40:41.758Z,519.00
2022-12-25T09:56:41.176Z,526.00
2022-12-25T09:57:41.144Z,529.00
2022-12-25T09:58:41.095Z,530.00
2022-12-25T09:59:41.067Z,531.00
2022-12-25T10:00:41.039Z,532.00
2022-12-25T10:01:41.111Z,531.00
2022-12-25T10:02:41.124Z,530.00
2022-12-25T10:03:40.993Z,528.00
2022-12-25T10:04:41.404Z,528.00
2022-12-25T10:05:40.870Z,532.00
2022-12-25T10:06:40.828Z,531.00
2022-12-25T10:07:40.781Z,530.00
2022-12-25T10:08:40.777Z,534.00
2022-12-25T10:09:40.708Z,535.00
2022-12-25T10:10:40.691Z,534.00
2022-12-25T10:11:40.637Z,534.00
2022-12-25T10:12:40.603Z,539.00
2022-12-25T10:13:40.573Z,531.00
2022-12-25T10:14:40.536Z,539.00
2022-12-25T10:15:45.455Z,534.00
2022-12-25T10:16:40.508Z,534.00
2022-12-25T10:17:40.432Z,535.00
2022-12-25T10:18:40.399Z,540.00
2022-12-25T10:19:40.361Z,556.00
2022-12-25T10:20:40.318Z,578.00
2022-12-25T10:21:40.274Z,594.00
2022-12-25T10:22:40.235Z,606.00
2022-12-25T10:23:40.183Z,621.00
2022-12-25T10:24:40.140Z,627.00
2022-12-25T13:39:30.628Z,509.00
2022-12-25T13:40:30.575Z,508.00
2022-12-25T13:41:30.545Z,510.00
2022-12-25T13:49:30.155Z,500.00
2022-12-25T13:50:30.117Z,505.00
2022-12-25T15:11:26.660Z,511.00
2022-12-25T15:20:26.306Z,523.00
2022-12-25T15:30:25.927Z,521.00
2022-12-25T15:44:25.380Z,512.00
2022-12-25T16:47:22.788Z,508.00
2022-12-25T17:38:20.993Z,504.00
2022-12-25T17:39:20.930Z,502.00
2022-12-25T17:40:20.888Z,502.00
2022-12-25T17:41:20.914Z,503.00
2022-12-25T17:42:20.818Z,506.00
2022-12-25T17:43:21.247Z,501.00
2022-12-25T17:44:20.747Z,501.00
2022-12-25T17:45:20.716Z,500.00
2022-12-25T17:46:20.785Z,506.00
2022-12-25T17:47:20.653Z,502.00
2022-12-25T17:48:20.603Z,503.00
2022-12-25T17:49:20.589Z,501.00
2022-12-25T17:50:20.535Z,501.00
2022-12-25T17:51:20.506Z,500.00
